createdAt,value
2019-01-18T00:02:34.150Z,3.92
2019-01-18T00:08:47.698Z,4.23
2019-01-18T00:14:09.744Z,3.80
2019-01-18T00:19:49.657Z,3.80
2019-01-18T00:37:09.365Z,4.87
2019-01-18T00:42:16.362Z,3.80
2019-01-18T00:47:23.221Z,4.30
2019-01-18T00:52:34.325Z,4.35
2019-01-18T00:57:37.874Z,4.47
2019-01-18T01:03:05.042Z,4.10
2019-01-18T09:37:41.777Z,16.93
2019-01-18T09:42:46.242Z,17.00
2019-01-18T09:47:50.878Z,17.20
2019-01-18T09:52:56.975Z,14.70
2019-01-18T09:58:01.581Z,8.65
2019-01-18T10:03:06.349Z,7.55
2019-01-18T10:08:26.213Z,9.50
2019-01-18T10:13:31.973Z,8.37
2019-01-18T10:18:36.964Z,6.95
2019-01-18T10:23:41.298Z,7.00
2019-01-18T10:28:45.522Z,5.95
2019-01-18T10:33:49.750Z,5.97
2019-01-18T10:38:54.415Z,5.10
2019-01-18T10:43:58.762Z,5.10
2019-01-18T10:49:03.553Z,4.90
2019-01-18T10:54:08.940Z,5.00
2019-01-18T10:59:13.160Z,4.70
2019-01-18T11:04:17.695Z,6.20
2019-01-18T11:09:22.019Z,6.30
2019-01-18T11:14:26.573Z,5.70
2019-01-18T11:19:34.315Z,5.33
2019-01-18T11:24:53.914Z,5.37
2019-01-18T11:29:58.858Z,5.97
2019-01-18T11:35:03.280Z,5.03
2019-01-18T11:40:18.041Z,4.55
2019-01-18T11:45:22.366Z,30.93
2019-01-18T11:50:29.618Z,7.42
2019-01-18T11:55:34.215Z,5.03
2019-01-18T12:00:38.861Z,4.90
2019-01-18T12:05:43.383Z,5.10
2019-01-18T12:10:47.635Z,5.30
2019-01-18T12:15:52.162Z,5.80
2019-01-18T12:20:56.517Z,4.00
2019-01-18T12:26:06.886Z,3.60
2019-01-18T12:31:30.774Z,3.30
2019-01-18T12:43:19.490Z,2.72
2019-01-18T12:48:44.159Z,2.60
2019-01-18T12:54:12.830Z,2.60
2019-01-18T12:59:48.014Z,2.80
2019-01-18T13:04:56.940Z,2.50
2019-01-18T13:10:11.935Z,2.30
2019-01-18T13:15:22.881Z,2.50
2019-01-18T13:20:28.687Z,2.40
2019-01-18T13:25:36.452Z,4.65
2019-01-18T13:30:42.483Z,2.75
2019-01-18T13:35:51.123Z,2.80
2019-01-18T19:43:53.027Z,14.83
2019-01-18T19:49:40.206Z,11.65
2019-01-18T20:02:00.776Z,11.83
2019-01-18T20:07:48.986Z,12.98
2019-01-18T20:13:42.473Z,10.90
2019-01-18T20:19:31.527Z,11.20
2019-01-18T20:37:22.829Z,11.20
2019-01-18T20:42:58.543Z,11.33
2019-01-18T20:48:45.473Z,9.78
2019-01-18T20:54:27.754Z,10.43
2019-01-18T20:59:58.769Z,19.67
2019-01-18T21:05:31.970Z,25.55
2019-01-18T21:11:24.393Z,19.82
2019-01-18T21:16:57.021Z,20.62
2019-01-18T21:22:56.571Z,18.00
2019-01-18T21:28:36.643Z,18.23
2019-01-18T21:34:24.617Z,15.08
2019-01-18T21:40:13.003Z,12.25
2019-01-18T21:46:07.883Z,10.50
2019-01-18T21:51:55.650Z,10.20
2019-01-18T21:57:46.535Z,11.48
2019-01-18T22:03:37.763Z,12.37
2019-01-18T22:09:21.667Z,15.23
2019-01-18T22:15:17.559Z,12.93
2019-01-18T22:21:25.341Z,13.10
2019-01-18T22:27:09.082Z,11.63
2019-01-18T22:32:38.772Z,9.90
2019-01-18T22:38:31.652Z,10.10
2019-01-18T22:44:17.932Z,10.43
2019-01-18T22:50:05.367Z,10.40
2019-01-18T22:55:53.921Z,11.60
2019-01-18T23:07:49.863Z,11.70
2019-01-18T23:13:50.693Z,10.60
